createdAt,value
2019-03-28T00:01:23.390Z,18.23
2019-03-28T00:04:12.277Z,17.27
2019-03-28T00:07:01.096Z,20.07
2019-03-28T00:09:49.883Z,20.10
2019-03-28T00:12:38.704Z,17.03
2019-03-28T00:15:27.496Z,16.27
2019-03-28T00:18:16.320Z,22.27
2019-03-28T00:21:24.203Z,17.20
2019-03-28T00:24:32.040Z,17.50
2019-03-28T00:27:21.224Z,20.10
2019-03-28T00:33:05.647Z,19.47
2019-03-28T00:35:47.267Z,20.33
2019-03-28T00:38:36.095Z,20.97
2019-03-28T00:41:24.919Z,18.80
2019-03-28T00:44:13.710Z,17.70
2019-03-28T00:47:02.529Z,17.30
2019-03-28T00:49:51.329Z,19.90
2019-03-28T00:52:40.147Z,21.50
2019-03-28T00:55:28.970Z,19.87
2019-03-28T00:58:17.744Z,19.07
2019-03-28T01:01:06.620Z,19.20
2019-03-28T01:06:49.624Z,19.15
2019-03-28T01:09:38.418Z,16.87
2019-03-28T01:12:27.587Z,18.63
2019-03-28T01:15:16.362Z,21.33
2019-03-28T01:18:05.185Z,19.87
2019-03-28T01:20:54.270Z,18.30
2019-03-28T01:23:43.093Z,17.57
2019-03-28T01:26:31.894Z,18.33
2019-03-28T01:29:20.746Z,15.17
2019-03-28T01:32:09.546Z,17.07
2019-03-28T01:34:58.384Z,16.47
2019-03-28T01:37:39.794Z,18.77
2019-03-28T01:40:28.603Z,17.67
2019-03-28T01:43:17.411Z,16.47
2019-03-28T01:46:06.526Z,20.83
2019-03-28T01:48:55.329Z,21.80
2019-03-28T01:51:44.139Z,18.80
2019-03-28T01:54:32.950Z,27.80
2019-03-28T01:57:21.750Z,16.50
2019-03-28T02:00:31.478Z,16.30
2019-03-28T02:03:20.278Z,19.00
2019-03-28T02:06:09.267Z,20.20
2019-03-28T02:08:59.615Z,19.97
2019-03-28T02:11:48.435Z,19.63
2019-03-28T02:14:37.232Z,20.60
2019-03-28T02:17:26.050Z,19.87
2019-03-28T02:20:15.004Z,18.27
2019-03-28T02:23:03.830Z,17.40
2019-03-28T02:25:52.633Z,16.97
2019-03-28T02:28:41.465Z,15.73
2019-03-28T02:31:30.265Z,18.03
2019-03-28T02:34:19.077Z,17.57
2019-03-28T02:37:00.521Z,15.77
2019-03-28T02:39:49.354Z,18.17
2019-03-28T02:42:39.889Z,18.10
2019-03-28T02:45:29.917Z,19.77
2019-03-28T02:48:19.175Z,17.53
2019-03-28T02:51:07.988Z,17.47
2019-03-28T02:54:15.829Z,17.00
2019-03-28T02:57:04.684Z,18.90
2019-03-28T02:59:54.654Z,17.83
2019-03-28T03:02:44.082Z,18.53
2019-03-28T03:05:32.866Z,15.70
2019-03-28T03:08:21.675Z,15.30
2019-03-28T03:11:10.476Z,17.43
2019-03-28T03:13:59.281Z,18.60
2019-03-28T03:16:48.877Z,19.83
2019-03-28T03:19:38.611Z,23.17
2019-03-28T03:22:28.607Z,20.90
2019-03-28T03:25:18.274Z,21.57
2019-03-28T03:28:07.100Z,21.20
2019-03-28T03:30:55.929Z,18.50
2019-03-28T03:33:44.707Z,19.50
2019-03-28T03:36:26.613Z,19.90
2019-03-28T03:39:15.410Z,17.50
2019-03-28T03:42:04.225Z,19.52
2019-03-28T03:44:53.023Z,20.83
2019-03-28T03:47:41.893Z,21.23
2019-03-28T03:50:30.777Z,19.93
2019-03-28T03:53:19.668Z,17.20
2019-03-28T03:56:08.448Z,19.20
2019-03-28T04:01:51.609Z,20.37
2019-03-28T04:04:40.434Z,21.80
2019-03-28T04:07:29.228Z,22.53
2019-03-28T04:10:18.043Z,25.07
2019-03-28T04:13:06.861Z,21.60
2019-03-28T04:15:55.687Z,20.90
2019-03-28T04:18:44.471Z,21.43
2019-03-28T04:24:27.780Z,28.40
2019-03-28T04:27:16.598Z,21.37
2019-03-28T04:30:26.302Z,17.17
2019-03-28T04:33:15.119Z,20.87
2019-03-28T04:35:56.570Z,21.10
2019-03-28T04:38:45.385Z,19.27
2019-03-28T04:41:34.198Z,20.20
2019-03-28T04:47:17.543Z,18.25
2019-03-28T04:53:21.841Z,19.53
2019-03-28T04:56:10.990Z,19.00
2019-03-28T04:58:59.806Z,17.87
2019-03-28T05:02:01.031Z,20.12
2019-03-28T05:04:39.234Z,17.07
2019-03-28T05:07:28.055Z,21.30
2019-03-28T05:13:11.536Z,19.63
2019-03-28T05:16:00.401Z,18.73
2019-03-28T05:18:49.197Z,19.90
2019-03-28T05:21:38.020Z,21.10
2019-03-28T05:24:26.814Z,26.50
2019-03-28T05:27:16.727Z,22.05
2019-03-28T05:30:27.070Z,18.57
2019-03-28T05:33:15.914Z,20.97
2019-03-28T05:36:04.714Z,19.27
2019-03-28T05:38:46.387Z,20.10
2019-03-28T05:41:35.184Z,19.63
2019-03-28T05:44:23.997Z,23.10
2019-03-28T05:47:12.829Z,16.27
2019-03-28T05:50:01.656Z,19.57
2019-03-28T05:52:50.486Z,19.17
2019-03-28T05:55:39.353Z,17.90
2019-03-28T05:58:28.181Z,17.97
2019-03-28T06:01:17.056Z,18.55
2019-03-28T06:04:05.881Z,23.83
2019-03-28T06:06:54.701Z,23.67
2019-03-28T06:09:44.517Z,18.40
2019-03-28T06:12:34.056Z,23.20
2019-03-28T06:15:22.841Z,19.80
2019-03-28T06:18:30.691Z,19.20
2019-03-28T06:21:19.502Z,20.80
2019-03-28T06:24:08.323Z,20.37
2019-03-28T06:26:57.222Z,20.75
2019-03-28T06:29:46.018Z,17.33
2019-03-28T06:32:42.879Z,21.60
2019-03-28T06:35:25.368Z,16.23
2019-03-28T06:38:07.080Z,16.50
2019-03-28T06:40:55.912Z,16.87
2019-03-28T06:43:44.707Z,16.17
2019-03-28T06:46:33.522Z,19.70
2019-03-28T06:49:41.340Z,21.10
2019-03-28T06:52:30.164Z,18.00
2019-03-28T06:55:18.957Z,18.07
2019-03-28T06:58:07.776Z,19.50
2019-03-28T07:00:56.573Z,16.37
2019-03-28T07:03:47.376Z,15.83
2019-03-28T07:06:35.921Z,16.40
2019-03-28T07:09:24.750Z,16.73
2019-03-28T07:12:13.554Z,17.10
2019-03-28T07:15:02.680Z,14.20
2019-03-28T07:17:51.533Z,14.35
2019-03-28T07:20:40.344Z,15.83
2019-03-28T07:23:29.223Z,15.70
2019-03-28T07:26:18.026Z,15.20
2019-03-28T07:29:06.853Z,20.40
2019-03-28T07:31:55.655Z,15.20
2019-03-28T07:34:44.470Z,15.40
2019-03-28T07:37:28.019Z,15.43
2019-03-28T07:40:16.743Z,15.90
2019-03-28T07:43:05.643Z,15.97
2019-03-28T07:45:54.475Z,16.70
2019-03-28T07:49:02.316Z,14.30
2019-03-28T07:51:51.218Z,15.67
2019-03-28T07:54:40.064Z,14.60
2019-03-28T07:57:28.869Z,15.67
2019-03-28T08:00:17.751Z,16.90
2019-03-28T08:03:06.610Z,17.70
2019-03-28T08:05:55.383Z,18.13
2019-03-28T08:08:44.356Z,13.60
2019-03-28T08:11:34.911Z,19.00
2019-03-28T08:14:25.283Z,19.77
2019-03-28T08:17:14.166Z,16.60
2019-03-28T08:23:36.543Z,15.50
2019-03-28T08:26:25.710Z,17.60
2019-03-28T08:29:14.528Z,21.37
2019-03-28T08:34:59.312Z,16.97
2019-03-28T08:37:40.903Z,16.40
2019-03-28T08:40:49.067Z,11.43
2019-03-28T08:43:37.871Z,11.60
2019-03-28T08:46:26.704Z,11.80
2019-03-28T08:49:15.512Z,10.90
2019-03-28T08:52:04.343Z,12.33
2019-03-28T08:54:53.151Z,10.70
2019-03-28T08:57:41.971Z,8.60
2019-03-28T09:00:35.264Z,9.30
2019-03-28T09:03:21.650Z,8.87
2019-03-28T09:06:10.457Z,12.57
2019-03-28T09:08:59.274Z,8.90
2019-03-28T09:11:48.090Z,11.07
2019-03-28T09:14:37.077Z,10.97
2019-03-28T09:17:27.459Z,12.40
2019-03-28T09:20:16.353Z,10.47
2019-03-28T09:23:05.234Z,8.80
2019-03-28T09:25:54.064Z,9.97
2019-03-28T09:28:42.865Z,10.80
2019-03-28T09:31:31.731Z,9.77
2019-03-28T09:34:20.511Z,9.70
2019-03-28T09:37:02.050Z,11.73
2019-03-28T09:39:50.853Z,9.97
2019-03-28T09:42:39.678Z,10.10
2019-03-28T09:45:28.568Z,10.40
2019-03-28T09:48:17.373Z,10.27
2019-03-28T09:51:25.266Z,10.97
2019-03-28T09:54:14.040Z,9.30
2019-03-28T09:57:02.870Z,9.93
2019-03-28T09:59:51.672Z,10.90
2019-03-28T10:02:43.877Z,11.47
2019-03-28T10:05:31.086Z,8.47
2019-03-28T10:08:19.915Z,9.17
2019-03-28T10:11:08.829Z,10.87
2019-03-28T10:13:57.623Z,10.77
2019-03-28T10:16:46.524Z,9.57
2019-03-28T10:19:35.351Z,7.70
2019-03-28T10:22:24.179Z,11.43
2019-03-28T10:25:14.494Z,10.83
2019-03-28T10:28:03.768Z,9.73
2019-03-28T10:30:45.514Z,13.32
2019-03-28T10:33:34.313Z,11.70
2019-03-28T10:36:16.447Z,10.00
2019-03-28T10:39:26.175Z,8.43
2019-03-28T10:42:14.995Z,7.70
2019-03-28T10:48:19.475Z,11.37
2019-03-28T10:51:09.353Z,15.73
2019-03-28T10:53:58.176Z,9.10
2019-03-28T10:56:52.130Z,12.37
2019-03-28T10:59:37.514Z,10.10
2019-03-28T11:02:28.784Z,8.60
2019-03-28T11:05:16.929Z,13.33
2019-03-28T11:08:05.736Z,7.67
2019-03-28T11:10:54.576Z,13.10
2019-03-28T11:13:43.370Z,9.83
2019-03-28T11:16:32.216Z,10.77
2019-03-28T11:19:21.025Z,10.20
2019-03-28T11:22:16.819Z,11.53
2019-03-28T11:25:26.557Z,9.00
2019-03-28T11:28:15.832Z,9.23
2019-03-28T11:31:05.943Z,7.20
2019-03-28T11:33:54.720Z,7.97
2019-03-28T11:36:43.548Z,8.60
2019-03-28T11:39:24.899Z,9.63
2019-03-28T11:42:13.736Z,10.25
2019-03-28T11:45:02.615Z,11.50
2019-03-28T11:47:51.439Z,10.83
2019-03-28T11:50:40.299Z,11.47
2019-03-28T11:53:29.078Z,11.23
2019-03-28T11:56:17.880Z,12.50
2019-03-28T11:59:07.025Z,11.47
2019-03-28T12:02:02.101Z,9.70
2019-03-28T12:04:46.373Z,10.00
2019-03-28T12:07:35.178Z,9.37
2019-03-28T12:10:24.303Z,9.20
2019-03-28T12:13:13.089Z,8.03
2019-03-28T12:16:01.920Z,11.77
2019-03-28T12:18:50.745Z,11.20
2019-03-28T12:21:39.576Z,10.97
2019-03-28T12:24:47.420Z,14.30
2019-03-28T12:27:36.381Z,9.87
2019-03-28T12:30:25.185Z,9.60
2019-03-28T12:33:14.010Z,12.43
2019-03-28T12:36:02.823Z,8.60
2019-03-28T12:38:51.645Z,11.23
2019-03-28T12:41:40.462Z,7.67
2019-03-28T12:44:29.287Z,13.70
2019-03-28T12:47:18.098Z,9.87
2019-03-28T12:50:27.848Z,7.70
2019-03-28T12:53:16.651Z,9.23
2019-03-28T12:56:05.500Z,10.30
2019-03-28T12:58:54.293Z,8.60
2019-03-28T13:04:36.927Z,9.50
2019-03-28T13:07:25.774Z,7.70
2019-03-28T13:10:33.904Z,5.77
2019-03-28T13:13:22.720Z,7.07
2019-03-28T13:16:11.537Z,8.77
2019-03-28T13:19:00.361Z,8.57
2019-03-28T13:21:49.173Z,6.60
2019-03-28T13:24:38.060Z,7.83
2019-03-28T13:27:26.887Z,8.97
2019-03-28T13:30:15.955Z,7.83
2019-03-28T13:32:57.968Z,8.10
2019-03-28T13:35:46.807Z,9.10
2019-03-28T13:38:35.616Z,8.30
2019-03-28T13:41:24.444Z,8.00
2019-03-28T13:44:13.245Z,8.70
2019-03-28T13:47:02.064Z,8.18
2019-03-28T13:49:50.891Z,7.10
2019-03-28T13:52:40.052Z,7.13
2019-03-28T13:55:28.875Z,8.27
2019-03-28T13:58:17.706Z,11.13
2019-03-28T14:01:06.534Z,5.97
2019-03-28T14:03:55.353Z,8.60
2019-03-28T14:06:44.172Z,9.80
2019-03-28T14:09:32.972Z,8.97
2019-03-28T14:12:23.311Z,9.27
2019-03-28T14:15:12.492Z,9.10
2019-03-28T14:18:20.329Z,7.57
2019-03-28T14:24:16.904Z,8.33
2019-03-28T14:27:05.722Z,7.50
2019-03-28T14:29:54.524Z,6.43
2019-03-28T14:32:34.334Z,7.10
2019-03-28T14:35:23.139Z,8.27
2019-03-28T14:38:12.036Z,8.30
2019-03-28T14:41:00.936Z,7.70
2019-03-28T14:43:49.795Z,6.93
2019-03-28T14:46:38.640Z,12.10
2019-03-28T14:49:27.592Z,7.97
2019-03-28T14:52:16.459Z,7.87
2019-03-28T14:55:26.222Z,8.70
2019-03-28T14:58:15.283Z,6.73
2019-03-28T15:01:04.105Z,6.90
2019-03-28T15:03:53.154Z,6.00
2019-03-28T15:06:42.049Z,7.40
2019-03-28T15:09:31.224Z,5.87
2019-03-28T15:12:39.175Z,8.03
2019-03-28T15:15:28.056Z,8.27
2019-03-28T15:18:09.809Z,7.50
2019-03-28T15:20:58.706Z,10.80
2019-03-28T15:23:47.534Z,11.10
2019-03-28T15:26:36.540Z,8.00
2019-03-28T15:29:27.013Z,6.60
2019-03-28T15:32:34.948Z,7.03
2019-03-28T15:35:23.855Z,7.17
2019-03-28T15:38:13.664Z,7.17
2019-03-28T15:41:03.651Z,8.80
2019-03-28T15:44:11.590Z,9.40
2019-03-28T15:47:00.477Z,6.77
2019-03-28T15:49:49.361Z,8.80
2019-03-28T15:55:45.929Z,8.73
2019-03-28T15:58:34.781Z,8.27
2019-03-28T16:01:23.634Z,7.63
2019-03-28T16:04:12.454Z,6.23
2019-03-28T16:07:01.364Z,6.80
2019-03-28T16:09:50.207Z,7.20
2019-03-28T16:12:39.416Z,6.20
2019-03-28T16:15:28.404Z,6.00
2019-03-28T16:18:17.289Z,7.13
2019-03-28T16:20:59.224Z,7.87
2019-03-28T16:23:48.116Z,7.20
2019-03-28T16:26:36.895Z,10.83
2019-03-28T16:29:25.710Z,6.30
2019-03-28T16:32:16.204Z,6.97
2019-03-28T16:35:25.969Z,8.77
2019-03-28T16:38:14.776Z,7.90
2019-03-28T16:41:03.622Z,6.17
2019-03-28T16:43:52.446Z,7.77
2019-03-28T16:49:35.331Z,7.70
2019-03-28T16:52:24.163Z,7.47
2019-03-28T16:55:25.550Z,10.73
2019-03-28T16:58:03.536Z,9.03
2019-03-28T17:00:52.337Z,7.60
2019-03-28T17:03:41.166Z,8.30
2019-03-28T17:06:30.041Z,7.17
2019-03-28T17:09:18.863Z,10.10
2019-03-28T17:12:07.737Z,6.00
2019-03-28T17:14:56.587Z,8.70
2019-03-28T17:17:45.388Z,8.30
2019-03-28T17:20:27.005Z,7.77
2019-03-28T17:23:15.898Z,9.03
2019-03-28T17:26:04.764Z,8.80
2019-03-28T17:28:53.598Z,9.23
2019-03-28T17:31:42.468Z,6.87
2019-03-28T17:34:35.233Z,23.00
2019-03-28T17:37:21.787Z,12.67
2019-03-28T17:40:10.680Z,13.23
2019-03-28T17:43:18.593Z,17.07
2019-03-28T17:49:16.870Z,10.60
2019-03-28T17:52:05.675Z,16.43
2019-03-28T17:54:54.533Z,19.07
2019-03-28T17:58:02.469Z,13.53
2019-03-28T18:00:51.300Z,7.40
2019-03-28T18:03:40.091Z,9.87
2019-03-28T18:06:29.040Z,7.80
2019-03-28T18:09:17.872Z,8.37
2019-03-28T18:12:06.690Z,10.27
2019-03-28T18:14:55.513Z,12.77
2019-03-28T18:17:44.321Z,9.60
2019-03-28T18:20:25.615Z,9.93
2019-03-28T18:23:14.455Z,14.27
2019-03-28T18:26:03.277Z,14.73
2019-03-28T18:28:52.166Z,15.23
2019-03-28T18:31:50.397Z,14.40
2019-03-28T18:37:25.747Z,9.13
2019-03-28T18:40:14.644Z,12.70
2019-03-28T18:43:03.513Z,11.60
2019-03-28T18:45:52.424Z,12.10
2019-03-28T18:48:41.224Z,14.03
2019-03-28T18:51:30.255Z,15.60
2019-03-28T18:54:20.332Z,13.57
2019-03-28T18:57:09.586Z,14.20
2019-03-28T18:59:58.382Z,9.80
2019-03-28T19:02:47.211Z,10.47
2019-03-28T19:05:36.098Z,9.33
2019-03-28T19:08:43.940Z,9.47
2019-03-28T19:11:25.932Z,7.57
2019-03-28T19:13:55.427Z,7.30
2019-03-28T19:16:44.244Z,10.63
2019-03-28T19:19:39.225Z,7.40
2019-03-28T19:22:23.888Z,9.10
2019-03-28T19:25:14.394Z,9.40
2019-03-28T19:28:03.267Z,8.43
2019-03-28T19:30:52.078Z,8.20
2019-03-28T19:33:41.008Z,8.60
2019-03-28T19:36:31.504Z,7.70
2019-03-28T19:39:39.688Z,8.43
2019-03-28T19:42:28.564Z,7.30
2019-03-28T19:45:38.369Z,10.67
2019-03-28T19:48:27.397Z,9.70
2019-03-28T19:51:16.216Z,9.40
2019-03-28T19:54:05.136Z,10.57
2019-03-28T19:56:57.173Z,9.40
2019-03-28T19:59:44.485Z,8.90
2019-03-28T20:02:33.844Z,7.13
2019-03-28T20:05:24.155Z,6.90
2019-03-28T20:08:15.783Z,8.30
2019-03-28T20:13:55.846Z,7.20
2019-03-28T20:16:44.655Z,7.47
2019-03-28T20:19:33.470Z,6.90
2019-03-28T20:22:22.291Z,6.87
2019-03-28T20:25:11.246Z,9.10
2019-03-28T20:28:00.116Z,10.70
2019-03-28T20:30:48.939Z,7.20
2019-03-28T20:33:37.895Z,8.30
2019-03-28T20:36:37.504Z,7.23
2019-03-28T20:39:18.789Z,7.27
2019-03-28T20:42:08.803Z,8.27
2019-03-28T20:44:58.269Z,7.50
2019-03-28T20:47:47.104Z,9.47
2019-03-28T20:50:35.910Z,10.40
2019-03-28T20:53:24.811Z,7.97
2019-03-28T20:56:13.615Z,9.37
2019-03-28T20:59:02.434Z,7.57
2019-03-28T21:01:51.231Z,9.43
2019-03-28T21:04:40.119Z,8.00
2019-03-28T21:07:28.925Z,6.90
2019-03-28T21:10:37.073Z,7.43
2019-03-28T21:13:18.385Z,10.87
2019-03-28T21:21:56.143Z,9.60
2019-03-28T21:24:45.098Z,8.10
2019-03-28T21:27:33.913Z,8.70
2019-03-28T21:30:22.780Z,9.20
2019-03-28T21:33:14.732Z,8.57
2019-03-28T21:36:02.130Z,8.53
2019-03-28T21:38:50.939Z,8.93
2019-03-28T21:41:39.801Z,9.37
2019-03-28T21:44:28.614Z,13.40
2019-03-28T21:47:17.438Z,9.83
2019-03-28T21:50:27.677Z,7.53
2019-03-28T21:53:19.974Z,12.03
2019-03-28T21:59:17.683Z,7.40
2019-03-28T22:05:35.267Z,6.83
2019-03-28T22:08:24.080Z,10.87
2019-03-28T22:11:12.904Z,11.13
2019-03-28T22:13:54.244Z,7.20
2019-03-28T22:16:43.075Z,11.13
2019-03-28T22:19:31.883Z,8.70
2019-03-28T22:22:20.695Z,8.65
2019-03-28T22:28:38.178Z,12.03
2019-03-28T22:31:28.451Z,8.07
2019-03-28T22:34:17.289Z,8.67
2019-03-28T22:37:06.077Z,9.87
2019-03-28T22:39:54.908Z,10.70
2019-03-28T22:42:43.710Z,7.70
2019-03-28T22:45:32.548Z,10.10
2019-03-28T22:48:21.354Z,10.20
2019-03-28T22:51:10.252Z,10.00
2019-03-28T22:53:59.045Z,9.97
2019-03-28T22:56:47.874Z,9.60
2019-03-28T22:59:36.670Z,6.30
2019-03-28T23:08:14.019Z,7.73
2019-03-28T23:11:02.813Z,8.93
2019-03-28T23:13:44.683Z,8.23
2019-03-28T23:16:33.595Z,8.57
2019-03-28T23:19:22.461Z,9.07
2019-03-28T23:22:11.388Z,9.50
2019-03-28T23:25:00.356Z,9.97
2019-03-28T23:27:49.239Z,8.23
2019-03-28T23:30:38.106Z,8.40
2019-03-28T23:33:27.346Z,9.60
2019-03-28T23:36:16.239Z,9.10
2019-03-28T23:39:26.367Z,10.33
2019-03-28T23:42:17.759Z,9.20
2019-03-28T23:45:26.741Z,10.23
2019-03-28T23:48:15.591Z,8.23
2019-03-28T23:51:04.447Z,9.27
2019-03-28T23:53:53.463Z,7.47
2019-03-28T23:56:42.367Z,10.60
